createdAt,value
2023-02-05T00:00:15.481Z,74.38
2023-02-05T00:01:15.705Z,74.52
2023-02-05T00:02:15.959Z,73.68
2023-02-05T00:03:16.190Z,73.99
2023-02-05T00:04:16.371Z,74.41
2023-02-05T00:05:16.574Z,74.41
2023-02-05T00:06:16.778Z,74.73
2023-02-05T00:07:16.980Z,74.84
2023-02-05T00:08:17.183Z,74.84
2023-02-05T00:09:17.397Z,74.84
2023-02-05T00:10:17.598Z,74.62
2023-02-05T00:11:17.847Z,74.62
2023-02-05T00:12:18.052Z,74.73
2023-02-05T00:13:18.277Z,74.62
2023-02-05T00:14:18.470Z,74.84
2023-02-05T00:15:18.659Z,74.94
2023-02-05T00:16:18.910Z,74.31
2023-02-05T00:17:19.101Z,74.55
2023-02-05T00:18:19.310Z,75.08
2023-02-05T00:19:19.532Z,75.18
2023-02-05T00:20:19.745Z,75.60
2023-02-05T00:21:19.964Z,75.81
2023-02-05T00:22:20.150Z,75.81
2023-02-05T00:23:20.379Z,75.81
2023-02-05T00:24:20.580Z,75.92
2023-02-05T00:25:20.795Z,75.92
2023-02-05T00:26:21.005Z,75.81
2023-02-05T00:27:21.213Z,75.29
2023-02-05T00:28:21.472Z,75.39
2023-02-05T00:29:21.712Z,75.49
2023-02-05T00:30:21.896Z,75.81
2023-02-05T00:31:22.222Z,75.81
2023-02-05T00:32:22.432Z,76.54
2023-02-05T00:33:22.621Z,76.75
2023-02-05T00:34:22.952Z,76.26
2023-02-05T00:35:23.055Z,76.89
2023-02-05T00:36:23.260Z,76.54
2023-02-05T00:37:23.513Z,76.54
2023-02-05T00:38:23.721Z,76.47
2023-02-05T00:39:23.968Z,76.79
2023-02-05T00:40:24.161Z,76.89
2023-02-05T00:41:24.375Z,77.31
2023-02-05T00:42:24.584Z,77.76
2023-02-05T00:43:24.800Z,77.76
2023-02-05T00:44:25.989Z,78.08
2023-02-05T00:45:25.320Z,78.29
2023-02-05T00:46:25.576Z,78.71
2023-02-05T00:47:25.781Z,78.71
2023-02-05T00:48:26.934Z,79.13
2023-02-05T00:49:26.277Z,79.23
2023-02-05T00:50:26.488Z,79.23
2023-02-05T00:51:26.712Z,79.23
2023-02-05T00:52:27.889Z,79.02
2023-02-05T00:53:27.216Z,79.02
2023-02-05T00:54:27.459Z,79.34
2023-02-05T00:55:27.665Z,79.44
2023-02-05T00:56:27.891Z,79.44
2023-02-05T00:57:28.074Z,79.44
2023-02-05T00:58:28.295Z,79.75
2023-02-05T00:59:29.436Z,78.81
2023-02-05T01:00:28.752Z,79.75
2023-02-05T01:01:29.019Z,79.44
2023-02-05T01:02:29.166Z,80.07
2023-02-05T01:03:29.365Z,79.97
2023-02-05T01:04:30.572Z,80.38
2023-02-05T01:05:30.698Z,79.55
2023-02-05T01:06:30.083Z,79.34
2023-02-05T01:07:30.304Z,78.81
2023-02-05T01:08:31.530Z,79.44
2023-02-05T01:09:31.628Z,79.13
2023-02-05T01:10:31.053Z,79.55
2023-02-05T01:11:31.192Z,79.75
2023-02-05T01:12:31.422Z,79.41
2023-02-05T01:13:31.667Z,78.81
2023-02-05T01:14:32.853Z,78.39
2023-02-05T01:15:32.434Z,79.44
2023-02-05T01:16:32.348Z,79.75
2023-02-05T01:17:32.572Z,79.65
2023-02-05T01:18:32.808Z,79.75
2023-02-05T01:19:33.056Z,79.55
2023-02-05T01:20:33.279Z,78.50
2023-02-05T01:21:33.507Z,79.23
2023-02-05T01:22:33.731Z,80.38
2023-02-05T01:23:33.986Z,80.18
2023-02-05T01:24:34.223Z,79.55
2023-02-05T01:25:34.774Z,79.34
2023-02-05T01:26:34.629Z,79.97
2023-02-05T01:27:34.858Z,80.28
2023-02-05T01:28:35.091Z,80.63
2023-02-05T01:29:35.336Z,80.53
2023-02-05T01:30:35.579Z,80.60
2023-02-05T01:31:35.934Z,80.70
2023-02-05T01:32:36.054Z,80.28
2023-02-05T01:33:36.296Z,80.18
2023-02-05T01:34:36.549Z,79.65
2023-02-05T01:35:36.918Z,80.38
2023-02-05T01:36:37.039Z,80.28
2023-02-05T01:37:37.273Z,79.86
2023-02-05T01:38:37.497Z,79.55
2023-02-05T01:39:37.735Z,79.55
2023-02-05T01:40:37.968Z,81.01
2023-02-05T01:41:38.211Z,81.23
2023-02-05T01:42:38.455Z,81.33
2023-02-05T01:43:38.689Z,81.33
2023-02-05T01:44:38.942Z,80.60
2023-02-05T01:45:39.193Z,79.97
2023-02-05T01:46:39.451Z,80.28
2023-02-05T01:47:39.690Z,80.91
2023-02-05T01:48:39.920Z,80.38
2023-02-05T01:49:40.183Z,81.01
2023-02-05T01:50:40.425Z,80.70
2023-02-05T01:51:40.670Z,81.01
2023-02-05T01:52:40.887Z,80.32
2023-02-05T01:53:41.122Z,80.32
2023-02-05T01:54:41.358Z,80.53
2023-02-05T01:55:41.608Z,81.05
2023-02-05T01:56:41.839Z,81.57
2023-02-05T01:57:42.076Z,82.03
2023-02-05T01:58:42.320Z,82.56
2023-02-05T01:59:42.574Z,82.87
2023-02-05T02:00:42.799Z,83.29
2023-02-05T02:01:43.051Z,83.61
2023-02-05T02:02:43.274Z,83.40
2023-02-05T02:03:43.514Z,83.40
2023-02-05T02:04:43.815Z,82.98
2023-02-05T02:05:44.032Z,83.86
2023-02-05T02:06:44.265Z,83.44
2023-02-05T02:07:44.490Z,83.12
2023-02-05T02:08:44.725Z,83.33
2023-02-05T02:09:44.980Z,83.64
2023-02-05T02:10:45.215Z,83.54
2023-02-05T02:11:45.488Z,84.06
2023-02-05T02:12:45.699Z,84.52
2023-02-05T02:13:45.935Z,84.52
2023-02-05T02:14:46.189Z,84.73
2023-02-05T02:15:46.472Z,85.47
2023-02-05T02:16:46.687Z,85.89
2023-02-05T02:17:46.952Z,85.68
2023-02-05T02:18:47.200Z,85.68
2023-02-05T02:19:47.438Z,85.57
2023-02-05T02:20:47.681Z,85.89
2023-02-05T02:21:47.945Z,85.57
2023-02-05T02:22:55.236Z,85.47
2023-02-05T02:23:48.425Z,85.68
2023-02-05T02:24:48.684Z,85.82
2023-02-05T02:25:48.922Z,85.82
2023-02-05T02:26:49.172Z,85.82
2023-02-05T02:27:49.465Z,86.13
2023-02-05T02:28:49.769Z,86.45
2023-02-05T02:29:49.936Z,86.66
2023-02-05T02:30:50.214Z,86.77
2023-02-05T02:31:50.439Z,86.35
2023-02-05T02:32:50.678Z,86.03
2023-02-05T02:33:50.956Z,85.82
2023-02-05T02:34:51.189Z,85.82
2023-02-05T02:35:51.435Z,86.07
2023-02-05T02:36:51.678Z,86.07
2023-02-05T02:37:51.927Z,86.80
2023-02-05T02:38:52.169Z,87.02
2023-02-05T02:39:52.436Z,87.23
2023-02-05T02:40:52.665Z,86.91
2023-02-05T02:41:52.942Z,86.80
2023-02-05T02:42:53.156Z,86.91
2023-02-05T02:43:53.405Z,86.70
2023-02-05T02:44:53.655Z,86.70
2023-02-05T02:45:53.915Z,87.02
2023-02-05T02:46:54.182Z,87.33
2023-02-05T02:47:54.484Z,87.54
2023-02-05T02:48:56.698Z,88.07
2023-02-05T02:49:54.970Z,88.38
2023-02-05T02:50:55.212Z,88.49
2023-02-05T02:51:55.458Z,88.38
2023-02-05T02:52:55.709Z,88.17
2023-02-05T02:53:55.951Z,87.96
2023-02-05T02:54:56.220Z,87.96
2023-02-05T02:55:56.456Z,87.85
2023-02-05T02:56:56.707Z,87.54
2023-02-05T02:57:56.950Z,87.02
2023-02-05T02:58:57.211Z,86.60
2023-02-05T02:59:57.468Z,86.91
2023-02-05T03:00:57.779Z,87.54
2023-02-05T03:01:57.893Z,87.54
2023-02-05T03:02:58.155Z,87.75
2023-02-05T03:03:58.428Z,87.44
2023-02-05T03:04:58.699Z,87.54
2023-02-05T03:05:58.947Z,87.54
2023-02-05T03:06:59.173Z,88.07
2023-02-05T03:07:59.419Z,87.65
2023-02-05T03:08:59.676Z,87.23
2023-02-05T03:09:59.959Z,87.23
2023-02-05T03:11:00.252Z,87.23
2023-02-05T03:12:00.547Z,87.16
2023-02-05T03:13:00.782Z,87.05
2023-02-05T03:14:01.028Z,87.16
2023-02-05T03:15:01.307Z,87.75
2023-02-05T03:16:01.589Z,87.75
2023-02-05T03:17:01.832Z,87.75
2023-02-05T03:18:02.118Z,87.65
2023-02-05T03:19:02.362Z,87.23
2023-02-05T03:20:02.646Z,87.02
2023-02-05T03:21:02.892Z,86.91
2023-02-05T03:22:03.146Z,86.60
2023-02-05T03:23:03.399Z,86.49
2023-02-05T03:24:03.639Z,86.28
2023-02-05T03:25:03.896Z,86.38
2023-02-05T03:26:04.163Z,86.28
2023-02-05T03:27:04.421Z,86.38
2023-02-05T03:28:04.683Z,86.60
2023-02-05T03:29:04.944Z,86.38
2023-02-05T03:30:05.206Z,86.18
2023-02-05T03:31:05.527Z,86.91
2023-02-05T03:32:05.664Z,86.49
2023-02-05T03:33:05.909Z,86.38
2023-02-05T03:34:06.179Z,86.80
2023-02-05T03:35:06.434Z,85.86
2023-02-05T03:36:06.676Z,85.75
2023-02-05T03:37:06.945Z,86.28
2023-02-05T03:38:07.181Z,86.18
2023-02-05T03:39:07.438Z,85.75
2023-02-05T03:40:07.690Z,85.75
2023-02-05T03:41:07.969Z,85.65
2023-02-05T03:42:08.210Z,85.75
2023-02-05T03:43:08.460Z,85.96
2023-02-05T03:44:08.720Z,86.28
2023-02-05T03:45:08.989Z,86.38
2023-02-05T03:46:09.267Z,86.18
2023-02-05T03:47:09.489Z,86.49
2023-02-05T03:48:09.732Z,86.70
2023-02-05T03:49:09.979Z,86.70
2023-02-05T03:50:10.252Z,86.91
2023-02-05T03:51:10.515Z,86.91
2023-02-05T03:52:10.755Z,87.08
2023-02-05T03:53:11.026Z,87.40
2023-02-05T03:54:11.264Z,86.98
2023-02-05T03:55:11.533Z,86.98
2023-02-05T03:56:11.782Z,87.19
2023-02-05T03:57:12.042Z,86.98
2023-02-05T03:58:12.280Z,86.55
2023-02-05T03:59:12.533Z,86.55
2023-02-05T04:00:12.787Z,86.35
2023-02-05T04:01:13.081Z,86.03
2023-02-05T04:02:13.334Z,85.93
2023-02-05T04:03:14.234Z,86.13
2023-02-05T04:04:13.799Z,85.50
2023-02-05T04:05:14.062Z,84.98
2023-02-05T04:06:14.294Z,85.08
2023-02-05T04:07:14.533Z,85.19
2023-02-05T04:08:14.792Z,85.19
2023-02-05T04:09:15.034Z,85.82
2023-02-05T04:10:15.274Z,84.98
2023-02-05T04:11:15.520Z,84.56
2023-02-05T04:12:15.769Z,84.98
2023-02-05T04:13:16.014Z,84.56
2023-02-05T04:14:16.285Z,84.25
2023-02-05T04:15:16.552Z,84.25
2023-02-05T04:16:16.812Z,84.25
2023-02-05T04:17:17.040Z,84.35
2023-02-05T04:18:17.285Z,84.03
2023-02-05T04:19:17.528Z,84.03
2023-02-05T04:20:17.813Z,84.14
2023-02-05T04:21:18.051Z,84.18
2023-02-05T04:22:18.285Z,84.28
2023-02-05T04:23:18.550Z,84.45
2023-02-05T04:24:18.812Z,84.88
2023-02-05T04:25:19.929Z,84.77
2023-02-05T04:26:19.242Z,84.56
2023-02-05T04:27:19.491Z,84.25
2023-02-05T04:28:19.736Z,84.35
2023-02-05T04:29:19.968Z,84.67
2023-02-05T04:30:20.221Z,84.45
2023-02-05T04:31:20.524Z,84.67
2023-02-05T04:32:20.749Z,84.45
2023-02-05T04:33:21.011Z,83.93
2023-02-05T04:34:21.409Z,83.93
2023-02-05T04:35:21.548Z,84.14
2023-02-05T04:36:21.823Z,84.25
2023-02-05T04:37:22.067Z,84.35
2023-02-05T04:38:22.314Z,84.56
2023-02-05T04:39:22.565Z,84.77
2023-02-05T04:40:22.818Z,84.88
2023-02-05T04:41:23.074Z,85.30
2023-02-05T04:42:23.304Z,85.30
2023-02-05T04:43:23.545Z,85.19
2023-02-05T04:44:23.813Z,85.08
2023-02-05T04:45:24.079Z,85.19
2023-02-05T04:46:24.344Z,85.82
2023-02-05T04:47:24.582Z,86.35
2023-02-05T04:48:24.812Z,86.55
2023-02-05T04:49:25.054Z,86.45
2023-02-05T04:50:25.313Z,86.55
2023-02-05T04:51:25.550Z,86.66
2023-02-05T04:52:25.791Z,86.52
2023-02-05T04:53:26.035Z,85.93
2023-02-05T04:54:26.276Z,85.40
2023-02-05T04:55:26.530Z,84.88
2023-02-05T04:56:26.758Z,84.67
2023-02-05T04:57:27.028Z,84.77
2023-02-05T04:58:27.262Z,84.03
2023-02-05T04:59:27.509Z,84.03
2023-02-05T05:00:27.762Z,84.25
2023-02-05T05:01:28.064Z,84.56
2023-02-05T05:02:28.330Z,85.15
2023-02-05T05:03:28.571Z,84.73
2023-02-05T05:04:28.823Z,84.42
2023-02-05T05:05:29.101Z,84.20
2023-02-05T05:06:29.346Z,82.95
2023-02-05T05:07:29.587Z,83.05
2023-02-05T05:08:29.839Z,83.37
2023-02-05T05:09:30.070Z,82.63
2023-02-05T05:10:30.320Z,82.21
2023-02-05T05:11:30.565Z,82.95
2023-02-05T05:12:30.809Z,83.37
2023-02-05T05:13:31.041Z,83.58
2023-02-05T05:14:31.277Z,83.47
2023-02-05T05:15:31.597Z,83.54
2023-02-05T05:16:31.724Z,83.22
2023-02-05T05:17:31.968Z,83.54
2023-02-05T05:18:32.211Z,83.33
2023-02-05T05:19:32.457Z,83.22
2023-02-05T05:20:32.695Z,83.12
2023-02-05T05:21:32.938Z,83.22
2023-02-05T05:22:33.164Z,83.01
2023-02-05T05:23:33.405Z,82.17
2023-02-05T05:24:33.627Z,82.07
2023-02-05T05:25:34.079Z,82.10
2023-02-05T05:26:34.142Z,82.21
2023-02-05T05:27:34.376Z,82.53
2023-02-05T05:28:34.609Z,82.32
2023-02-05T05:29:34.847Z,82.32
2023-02-05T05:30:35.127Z,82.63
2023-02-05T05:31:35.365Z,82.32
2023-02-05T05:32:35.590Z,82.00
2023-02-05T05:33:35.824Z,82.53
2023-02-05T05:34:36.062Z,82.95
2023-02-05T05:35:36.342Z,82.42
2023-02-05T05:36:36.564Z,82.53
2023-02-05T05:37:36.792Z,82.63
2023-02-05T05:38:37.036Z,82.63
2023-02-05T05:39:37.262Z,82.21
2023-02-05T05:40:37.519Z,82.10
2023-02-05T05:41:37.763Z,82.21
2023-02-05T05:42:37.997Z,82.21
2023-02-05T05:43:38.225Z,82.53
2023-02-05T05:44:38.461Z,82.74
2023-02-05T05:45:38.711Z,82.63
2023-02-05T05:46:38.946Z,82.53
2023-02-05T05:47:39.175Z,82.74
2023-02-05T05:48:39.417Z,83.26
2023-02-05T05:49:39.645Z,83.26
2023-02-05T05:50:39.911Z,83.89
2023-02-05T05:51:40.139Z,83.05
2023-02-05T05:52:40.371Z,83.15
2023-02-05T05:53:40.605Z,83.37
2023-02-05T05:54:40.844Z,83.58
2023-02-05T05:55:41.086Z,83.68
2023-02-05T05:56:41.333Z,84.20
2023-02-05T05:57:41.565Z,84.10
2023-02-05T05:58:41.805Z,84.31
2023-02-05T05:59:42.037Z,85.05
2023-02-05T06:00:42.307Z,84.94
2023-02-05T06:01:42.534Z,85.05
2023-02-05T06:02:42.831Z,84.84
2023-02-05T06:03:42.949Z,84.84
2023-02-05T06:04:43.224Z,85.40
2023-02-05T06:05:43.427Z,85.93
2023-02-05T06:06:43.678Z,85.61
2023-02-05T06:07:43.915Z,85.50
2023-02-05T06:08:44.177Z,85.30
2023-02-05T06:09:44.449Z,85.72
2023-02-05T06:10:44.747Z,86.13
2023-02-05T06:11:44.996Z,86.20
2023-02-05T06:12:45.259Z,86.20
2023-02-05T06:13:45.521Z,86.30
2023-02-05T06:14:45.785Z,86.30
2023-02-05T06:15:46.069Z,85.72
2023-02-05T06:16:46.366Z,85.50
2023-02-05T06:17:46.603Z,86.13
2023-02-05T06:18:46.881Z,86.18
2023-02-05T06:19:47.143Z,86.38
2023-02-05T06:20:47.443Z,86.80
2023-02-05T06:21:47.714Z,87.02
2023-02-05T06:22:47.992Z,87.12
2023-02-05T06:23:48.263Z,86.80
2023-02-05T06:24:48.546Z,86.70
2023-02-05T06:25:48.821Z,86.91
2023-02-05T06:26:49.177Z,87.33
2023-02-05T06:27:49.363Z,87.60
2023-02-05T06:28:49.619Z,87.82
2023-02-05T06:29:49.878Z,87.60
2023-02-05T06:30:50.277Z,87.04
2023-02-05T06:31:50.556Z,86.30
2023-02-05T06:32:50.586Z,85.99
2023-02-05T06:33:50.905Z,85.68
2023-02-05T06:34:51.015Z,85.47
2023-02-05T06:35:51.274Z,85.78
2023-02-05T06:36:51.522Z,84.52
2023-02-05T06:37:51.764Z,84.42
2023-02-05T06:38:52.039Z,84.45
2023-02-05T06:39:52.241Z,84.45
2023-02-05T06:40:52.530Z,84.56
2023-02-05T06:41:52.763Z,85.08
2023-02-05T06:42:53.003Z,85.61
2023-02-05T06:43:53.238Z,85.99
2023-02-05T06:44:53.483Z,85.68
2023-02-05T06:45:53.734Z,85.99
2023-02-05T06:46:53.989Z,85.68
2023-02-05T06:47:54.216Z,83.89
2023-02-05T06:48:54.465Z,83.37
2023-02-05T06:49:54.695Z,83.47
2023-02-05T06:50:54.965Z,83.37
2023-02-05T06:51:55.205Z,83.83
2023-02-05T06:52:55.466Z,83.83
2023-02-05T06:53:55.683Z,84.03
2023-02-05T06:54:55.934Z,84.42
2023-02-05T06:55:56.177Z,84.73
2023-02-05T06:56:56.417Z,84.31
2023-02-05T06:57:56.659Z,84.94
2023-02-05T06:58:56.900Z,85.01
2023-02-05T06:59:57.140Z,84.80
2023-02-05T07:00:57.399Z,84.06
2023-02-05T07:01:57.694Z,84.06
2023-02-05T07:02:57.973Z,83.86
2023-02-05T07:03:58.179Z,83.33
2023-02-05T07:04:58.418Z,83.33
2023-02-05T07:05:58.661Z,83.12
2023-02-05T07:06:58.912Z,82.39
2023-02-05T07:07:59.159Z,82.28
2023-02-05T07:08:59.404Z,82.49
2023-02-05T07:09:59.628Z,82.49
2023-02-05T07:10:59.898Z,82.59
2023-02-05T07:12:00.136Z,83.12
2023-02-05T07:13:00.376Z,82.91
2023-02-05T07:14:00.617Z,82.59
2023-02-05T07:15:00.873Z,82.70
2023-02-05T07:16:01.158Z,82.91
2023-02-05T07:17:01.294Z,82.59
2023-02-05T07:18:01.554Z,81.76
2023-02-05T07:19:01.801Z,82.07
2023-02-05T07:20:02.039Z,82.28
2023-02-05T07:21:02.307Z,81.76
2023-02-05T07:22:02.547Z,81.76
2023-02-05T07:23:02.809Z,81.76
2023-02-05T07:24:03.097Z,81.86
2023-02-05T07:25:04.555Z,82.28
2023-02-05T07:26:03.503Z,82.91
2023-02-05T07:27:03.767Z,83.01
2023-02-05T07:28:04.035Z,82.91
2023-02-05T07:29:04.264Z,82.98
2023-02-05T07:30:04.552Z,82.87
2023-02-05T07:31:04.906Z,82.87
2023-02-05T07:32:04.999Z,83.50
2023-02-05T07:33:05.237Z,83.78
2023-02-05T07:34:05.472Z,82.83
2023-02-05T07:35:05.738Z,83.36
2023-02-05T07:36:05.976Z,82.83
2023-02-05T07:37:06.224Z,82.90
2023-02-05T07:38:06.477Z,82.69
2023-02-05T07:39:06.720Z,82.17
2023-02-05T07:40:06.952Z,82.48
2023-02-05T07:41:07.213Z,82.69
2023-02-05T07:42:07.447Z,82.62
2023-02-05T07:43:07.692Z,82.62
2023-02-05T07:44:07.934Z,82.42
2023-02-05T07:45:08.212Z,82.73
2023-02-05T07:46:08.397Z,83.18
2023-02-05T07:47:08.517Z,83.40
2023-02-05T07:48:08.776Z,83.75
2023-02-05T07:49:09.011Z,84.48
2023-02-05T07:50:09.263Z,84.48
2023-02-05T07:51:09.508Z,84.69
2023-02-05T07:52:09.740Z,84.86
2023-02-05T07:53:09.997Z,84.55
2023-02-05T07:54:10.254Z,84.34
2023-02-05T07:55:10.528Z,84.44
2023-02-05T07:56:10.921Z,84.13
2023-02-05T07:57:11.043Z,84.55
2023-02-05T07:58:11.272Z,84.23
2023-02-05T07:59:11.504Z,84.03
2023-02-05T08:00:11.750Z,83.78
2023-02-05T08:01:12.031Z,83.25
2023-02-05T08:02:12.152Z,83.57
2023-02-05T08:03:12.380Z,84.09
2023-02-05T08:04:12.772Z,82.94
2023-02-05T08:05:12.836Z,83.04
2023-02-05T08:06:13.105Z,83.47
2023-02-05T08:07:13.353Z,81.89
2023-02-05T08:08:13.575Z,81.68
2023-02-05T08:09:13.810Z,82.20
2023-02-05T08:10:14.049Z,82.20
2023-02-05T08:11:14.311Z,82.62
2023-02-05T08:12:14.548Z,82.03
2023-02-05T08:13:14.784Z,81.99
2023-02-05T08:14:15.019Z,82.52
2023-02-05T08:15:15.260Z,82.31
2023-02-05T08:16:15.670Z,82.31
2023-02-05T08:17:15.692Z,81.57
2023-02-05T08:18:15.917Z,81.57
2023-02-05T08:19:16.161Z,81.57
2023-02-05T08:20:16.402Z,81.05
2023-02-05T08:21:16.658Z,81.79
2023-02-05T08:22:16.895Z,81.99
2023-02-05T08:23:24.170Z,81.37
2023-02-05T08:24:17.366Z,81.57
2023-02-05T08:25:17.626Z,81.89
2023-02-05T08:26:17.881Z,81.79
2023-02-05T08:27:18.093Z,81.79
2023-02-05T08:28:18.350Z,82.10
2023-02-05T08:29:18.567Z,82.38
2023-02-05T08:30:18.801Z,82.59
2023-02-05T08:31:19.097Z,81.85
2023-02-05T08:32:19.252Z,81.96
2023-02-05T08:33:19.514Z,81.12
2023-02-05T08:34:20.914Z,80.80
2023-02-05T08:35:19.914Z,81.01
2023-02-05T08:36:20.175Z,81.85
2023-02-05T08:37:20.411Z,81.64
2023-02-05T08:38:20.646Z,81.54
2023-02-05T08:39:20.928Z,80.91
2023-02-05T08:40:21.154Z,80.18
2023-02-05T08:41:21.429Z,80.80
2023-02-05T08:42:21.663Z,80.38
2023-02-05T08:43:21.896Z,80.49
2023-02-05T08:44:22.133Z,80.18
2023-02-05T08:45:23.322Z,79.75
2023-02-05T08:46:22.561Z,78.92
2023-02-05T08:47:22.797Z,79.13
2023-02-05T08:48:23.020Z,78.99
2023-02-05T08:49:23.249Z,78.99
2023-02-05T08:50:23.504Z,77.73
2023-02-05T08:51:23.742Z,78.15
2023-02-05T08:52:23.963Z,78.36
2023-02-05T08:53:24.204Z,78.25
2023-02-05T08:54:24.416Z,77.31
2023-02-05T08:55:24.676Z,77.66
2023-02-05T08:56:24.916Z,77.97
2023-02-05T08:57:25.355Z,77.97
2023-02-05T08:58:25.406Z,78.25
2023-02-05T08:59:25.688Z,78.46
2023-02-05T09:00:25.847Z,77.91
2023-02-05T09:01:26.068Z,77.59
2023-02-05T09:02:29.397Z,77.28
2023-02-05T09:03:26.581Z,77.59
2023-02-05T09:04:26.813Z,77.91
2023-02-05T09:05:27.025Z,77.17
2023-02-05T09:06:27.254Z,77.38
2023-02-05T09:07:27.500Z,77.38
2023-02-05T09:08:28.952Z,76.86
2023-02-05T09:09:27.906Z,75.70
2023-02-05T09:10:28.137Z,75.81
2023-02-05T09:11:28.391Z,76.26
2023-02-05T09:12:28.621Z,77.00
2023-02-05T09:13:28.875Z,76.96
2023-02-05T09:14:29.107Z,76.75
2023-02-05T09:15:29.348Z,75.70
2023-02-05T09:16:29.626Z,75.81
2023-02-05T09:17:29.851Z,76.12
2023-02-05T09:18:30.071Z,76.33
2023-02-05T09:19:30.300Z,76.75
2023-02-05T09:20:30.635Z,76.23
2023-02-05T09:21:30.774Z,75.81
2023-02-05T09:22:31.005Z,76.54
2023-02-05T09:23:31.250Z,76.86
2023-02-05T09:24:31.500Z,76.65
2023-02-05T09:25:31.841Z,76.61
2023-02-05T09:26:31.944Z,75.39
2023-02-05T09:27:32.158Z,75.70
2023-02-05T09:28:32.375Z,76.20
2023-02-05T09:29:32.603Z,76.30
2023-02-05T09:30:32.833Z,76.20
2023-02-05T09:31:33.156Z,76.20
2023-02-05T09:32:33.249Z,75.88
2023-02-05T09:33:33.486Z,76.09
2023-02-05T09:34:33.702Z,75.98
2023-02-05T09:35:34.171Z,76.09
2023-02-05T09:36:34.228Z,76.57
2023-02-05T09:37:34.459Z,76.16
2023-02-05T09:38:34.682Z,75.95
2023-02-05T09:40:17.614Z,75.95
2023-02-05T09:40:36.166Z,75.84
2023-02-05T09:41:35.385Z,75.43
2023-02-05T09:42:35.631Z,75.11
2023-02-05T09:43:35.850Z,75.74
2023-02-05T09:44:36.085Z,75.74
2023-02-05T09:45:38.531Z,75.63
2023-02-05T09:46:36.521Z,75.74
2023-02-05T09:47:36.737Z,75.63
2023-02-05T09:48:36.946Z,75.84
2023-02-05T09:49:37.161Z,75.81
2023-02-05T09:50:37.377Z,75.39
2023-02-05T09:51:37.608Z,75.49
2023-02-05T09:52:37.842Z,75.29
2023-02-05T09:53:38.050Z,74.66
2023-02-05T09:54:38.263Z,74.76
2023-02-05T09:55:38.482Z,74.55
2023-02-05T09:56:40.002Z,74.55
2023-02-05T09:57:38.939Z,74.63
2023-02-05T09:58:39.147Z,74.42
2023-02-05T09:59:39.354Z,74.00
2023-02-05T10:00:39.559Z,74.42
2023-02-05T10:01:39.821Z,73.90
2023-02-05T10:02:39.981Z,74.10
2023-02-05T10:03:40.180Z,74.00
2023-02-05T10:04:40.426Z,74.21
2023-02-05T10:05:40.612Z,73.79
2023-02-05T10:06:40.835Z,73.79
2023-02-05T10:07:41.032Z,73.55
2023-02-05T10:08:41.242Z,72.89
2023-02-05T10:09:41.429Z,72.44
2023-02-05T10:10:41.633Z,71.15
2023-02-05T10:11:41.833Z,70.46
2023-02-05T10:12:42.012Z,70.04
2023-02-05T10:13:42.221Z,69.21
2023-02-05T10:14:42.385Z,68.69
2023-02-05T10:15:42.577Z,68.82
2023-02-05T10:16:42.749Z,68.75
2023-02-05T10:17:42.899Z,69.31
2023-02-05T10:18:43.043Z,69.96
2023-02-05T10:19:43.203Z,70.48
2023-02-05T10:20:43.397Z,70.48
2023-02-05T10:21:43.557Z,70.70
2023-02-05T10:22:43.738Z,71.11
2023-02-05T10:23:43.895Z,70.70
2023-02-05T10:24:44.074Z,70.48
2023-02-05T10:25:45.731Z,70.70
2023-02-05T10:26:44.459Z,70.90
2023-02-05T10:27:44.644Z,70.70
2023-02-05T10:28:44.781Z,70.98
2023-02-05T10:29:44.929Z,70.32
2023-02-05T10:30:45.231Z,70.04
2023-02-05T10:31:45.290Z,70.04
2023-02-05T10:32:45.457Z,70.66
2023-02-05T10:33:45.617Z,70.87
2023-02-05T10:34:45.781Z,70.45
2023-02-05T10:35:45.922Z,70.53
2023-02-05T10:36:46.106Z,70.66
2023-02-05T10:37:46.780Z,70.87
2023-02-05T10:38:46.451Z,70.94
2023-02-05T10:39:46.595Z,71.67
2023-02-05T10:40:46.777Z,70.18
2023-02-05T10:41:46.919Z,70.00
2023-02-05T10:42:47.073Z,70.39
2023-02-05T10:43:47.213Z,70.07
2023-02-05T10:44:47.456Z,70.07
2023-02-05T10:45:47.586Z,70.28
2023-02-05T10:46:47.858Z,70.18
2023-02-05T10:47:47.997Z,70.07
2023-02-05T10:48:48.148Z,70.60
2023-02-05T10:49:48.285Z,69.97
2023-02-05T10:50:48.422Z,70.50
2023-02-05T10:51:48.591Z,69.94
2023-02-05T10:52:48.734Z,69.42
2023-02-05T10:53:48.851Z,69.00
2023-02-05T10:54:49.098Z,68.66
2023-02-05T10:55:49.329Z,67.72
2023-02-05T10:56:49.617Z,67.51
2023-02-05T10:57:49.712Z,67.79
2023-02-05T10:58:49.949Z,67.79
2023-02-05T10:59:50.197Z,67.27
2023-02-05T11:00:50.305Z,67.58
2023-02-05T11:01:50.577Z,68.00
2023-02-05T11:02:50.706Z,68.35
2023-02-05T11:03:50.802Z,68.35
2023-02-05T11:04:51.023Z,68.24
2023-02-05T11:05:51.229Z,68.63
2023-02-05T11:06:51.457Z,68.63
2023-02-05T11:07:51.655Z,68.00
2023-02-05T11:08:51.877Z,68.35
2023-02-05T11:09:52.099Z,68.35
2023-02-05T11:10:52.313Z,68.59
2023-02-05T11:11:52.530Z,69.42
2023-02-05T11:12:52.766Z,69.21
2023-02-05T11:13:52.975Z,69.63
2023-02-05T11:14:53.194Z,69.18
2023-02-05T11:15:53.452Z,68.45
2023-02-05T11:16:53.576Z,68.45
2023-02-05T11:17:53.780Z,68.63
2023-02-05T11:18:54.021Z,68.07
2023-02-05T11:19:55.184Z,67.73
2023-02-05T11:20:54.389Z,66.77
2023-02-05T11:21:54.631Z,66.66
2023-02-05T11:22:54.845Z,66.21
2023-02-05T11:23:55.036Z,66.14
2023-02-05T11:24:55.230Z,66.31
2023-02-05T11:25:55.451Z,65.69
2023-02-05T11:26:55.654Z,65.25
2023-02-05T11:27:55.923Z,65.14
2023-02-05T11:28:56.028Z,64.97
2023-02-05T11:29:56.184Z,65.72
2023-02-05T11:30:56.786Z,66.24
2023-02-05T11:31:56.641Z,66.45
2023-02-05T11:32:56.676Z,66.45
2023-02-05T11:33:56.847Z,66.24
2023-02-05T11:34:57.036Z,65.69
2023-02-05T11:35:57.227Z,65.62
2023-02-05T11:36:57.417Z,66.17
2023-02-05T11:37:57.587Z,66.90
2023-02-05T11:38:57.774Z,67.32
2023-02-05T11:39:57.956Z,67.03
2023-02-05T11:40:58.129Z,67.76
2023-02-05T11:41:58.315Z,67.94
2023-02-05T11:42:58.499Z,67.11
2023-02-05T11:43:58.678Z,66.93
2023-02-05T11:44:58.884Z,67.45
2023-02-05T11:45:59.070Z,67.21
2023-02-05T11:46:59.284Z,66.90
2023-02-05T11:47:59.470Z,66.69
2023-02-05T11:48:59.676Z,66.77
2023-02-05T11:49:59.862Z,66.14
2023-02-05T11:51:00.043Z,65.93
2023-02-05T11:52:00.242Z,66.06
2023-02-05T11:53:00.421Z,67.00
2023-02-05T11:54:00.605Z,66.69
2023-02-05T11:55:00.734Z,66.93
2023-02-05T11:56:00.906Z,67.11
2023-02-05T11:57:01.126Z,67.11
2023-02-05T11:58:01.308Z,66.24
2023-02-05T11:59:01.505Z,66.48
2023-02-05T12:00:01.661Z,66.38
2023-02-05T12:01:01.862Z,66.90
2023-02-05T12:02:02.177Z,66.31
2023-02-05T12:03:02.282Z,65.69
2023-02-05T12:04:02.473Z,65.72
2023-02-05T12:05:02.661Z,66.48
2023-02-05T12:06:02.883Z,66.80
2023-02-05T12:07:03.025Z,67.00
2023-02-05T12:08:03.176Z,66.35
2023-02-05T12:09:03.359Z,66.66
2023-02-05T12:10:03.554Z,65.93
2023-02-05T12:11:03.728Z,66.11
2023-02-05T12:12:04.270Z,65.38
2023-02-05T12:13:04.062Z,65.69
2023-02-05T12:14:04.235Z,65.59
2023-02-05T12:15:04.411Z,65.48
2023-02-05T12:16:04.602Z,65.48
2023-02-05T12:17:04.810Z,65.59
2023-02-05T12:18:04.970Z,65.48
2023-02-05T12:19:05.137Z,65.90
2023-02-05T12:20:05.381Z,65.66
2023-02-05T12:21:05.520Z,65.04
2023-02-05T12:22:05.729Z,65.14
2023-02-05T12:23:05.913Z,65.70
2023-02-05T12:24:06.092Z,63.53
2023-02-05T12:25:06.272Z,63.32
2023-02-05T12:26:06.447Z,63.32
2023-02-05T12:27:06.650Z,63.63
2023-02-05T12:28:06.877Z,62.83
2023-02-05T12:29:07.038Z,63.28
2023-02-05T12:30:07.197Z,63.59
2023-02-05T12:31:07.389Z,63.90
2023-02-05T12:32:07.568Z,63.76
2023-02-05T12:33:07.753Z,63.66
2023-02-05T12:34:07.914Z,63.21
2023-02-05T12:35:08.086Z,63.40
2023-02-05T12:36:08.261Z,62.36
2023-02-05T12:37:08.440Z,62.70
2023-02-05T12:38:08.594Z,62.70
2023-02-05T12:39:08.881Z,62.55
2023-02-05T12:40:08.954Z,63.69
2023-02-05T12:41:09.117Z,63.90
2023-02-05T12:42:09.307Z,64.07
2023-02-05T12:43:09.448Z,63.24
2023-02-05T12:44:09.593Z,63.14
2023-02-05T12:45:09.772Z,63.66
2023-02-05T12:46:09.978Z,63.76
2023-02-05T12:47:10.172Z,63.56
2023-02-05T12:48:10.337Z,63.28
2023-02-05T12:49:10.524Z,63.90
2023-02-05T12:50:10.717Z,64.31
2023-02-05T12:51:10.851Z,63.90
2023-02-05T12:52:11.020Z,64.00
2023-02-05T12:53:11.191Z,64.07
2023-02-05T12:54:11.349Z,63.53
2023-02-05T12:55:11.518Z,62.46